sensor_id;sensor_type;location;lat;lon;timestamp;P1;durP1;ratioP1;P2;durP2;ratioP2
75928;SDS011;64606;44.062;2.986;2023-04-03T00:00:11;0.80;;;0.52;;
75928;SDS011;64606;44.062;2.986;2023-04-03T00:02:38;0.57;;;0.57;;
75928;SDS011;64606;44.062;2.986;2023-04-03T00:05:05;1.08;;;0.55;;
75928;SDS011;64606;44.062;2.986;2023-04-03T00:07:32;1.40;;;0.55;;
75928;SDS011;64606;44.062;2.986;2023-04-03T00:09:58;0.50;;;0.40;;
75928;SDS011;64606;44.062;2.986;2023-04-03T00:12:24;1.73;;;0.50;;
75928;SDS011;64606;44.062;2.986;2023-04-03T00:14:50;0.55;;;0.45;;
75928;SDS011;64606;44.062;2.986;2023-04-03T00:17:16;0.70;;;0.57;;
75928;SDS011;64606;44.062;2.986;2023-04-03T00:19:42;0.50;;;0.50;;
75928;SDS011;64606;44.062;2.986;2023-04-03T00:22:08;0.82;;;0.60;;
75928;SDS011;64606;44.062;2.986;2023-04-03T00:24:35;1.20;;;0.60;;
75928;SDS011;64606;44.062;2.986;2023-04-03T00:27:01;1.48;;;0.40;;
75928;SDS011;64606;44.062;2.986;2023-04-03T00:29:27;0.60;;;0.60;;
75928;SDS011;64606;44.062;2.986;2023-04-03T00:31:53;0.30;;;0.30;;
75928;SDS011;64606;44.062;2.986;2023-04-03T00:34:19;0.40;;;0.40;;
75928;SDS011;64606;44.062;2.986;2023-04-03T00:36:45;1.30;;;0.50;;
75928;SDS011;64606;44.062;2.986;2023-04-03T00:39:11;1.40;;;0.30;;
75928;SDS011;64606;44.062;2.986;2023-04-03T00:41:37;0.30;;;0.30;;
75928;SDS011;64606;44.062;2.986;2023-04-03T00:46:48;1.15;;;0.50;;
75928;SDS011;64606;44.062;2.986;2023-04-03T00:49:15;0.32;;;0.30;;
75928;SDS011;64606;44.062;2.986;2023-04-03T00:51:41;0.55;;;0.40;;
75928;SDS011;64606;44.062;2.986;2023-04-03T00:54:07;0.68;;;0.68;;
75928;SDS011;64606;44.062;2.986;2023-04-03T00:56:33;0.32;;;0.32;;
75928;SDS011;64606;44.062;2.986;2023-04-03T00:59:06;0.73;;;0.55;;
75928;SDS011;64606;44.062;2.986;2023-04-03T01:01:34;0.60;;;0.45;;
75928;SDS011;64606;44.062;2.986;2023-04-03T01:04:00;0.80;;;0.60;;
75928;SDS011;64606;44.062;2.986;2023-04-03T01:06:28;0.50;;;0.40;;
75928;SDS011;64606;44.062;2.986;2023-04-03T01:08:59;0.50;;;0.50;;
75928;SDS011;64606;44.062;2.986;2023-04-03T01:11:25;0.30;;;0.30;;
75928;SDS011;64606;44.062;2.986;2023-04-03T01:13:51;1.20;;;0.50;;
75928;SDS011;64606;44.062;2.986;2023-04-03T01:16:18;0.50;;;0.50;;
75928;SDS011;64606;44.062;2.986;2023-04-03T01:18:44;0.90;;;0.50;;
75928;SDS011;64606;44.062;2.986;2023-04-03T01:23:40;0.70;;;0.50;;
75928;SDS011;64606;44.062;2.986;2023-04-03T01:26:10;1.52;;;0.55;;
75928;SDS011;64606;44.062;2.986;2023-04-03T01:28:36;0.73;;;0.50;;
75928;SDS011;64606;44.062;2.986;2023-04-03T01:33:32;0.60;;;0.50;;
75928;SDS011;64606;44.062;2.986;2023-04-03T01:35:58;0.82;;;0.60;;
75928;SDS011;64606;44.062;2.986;2023-04-03T01:38:24;0.70;;;0.60;;
75928;SDS011;64606;44.062;2.986;2023-04-03T01:40:50;0.63;;;0.60;;
75928;SDS011;64606;44.062;2.986;2023-04-03T01:43:16;0.40;;;0.40;;
75928;SDS011;64606;44.062;2.986;2023-04-03T01:45:42;0.75;;;0.75;;
75928;SDS011;64606;44.062;2.986;2023-04-03T01:48:09;1.75;;;0.50;;
75928;SDS011;64606;44.062;2.986;2023-04-03T01:50:35;1.42;;;0.70;;
75928;SDS011;64606;44.062;2.986;2023-04-03T01:53:01;2.42;;;0.63;;
75928;SDS011;64606;44.062;2.986;2023-04-03T01:55:27;1.48;;;0.82;;
75928;SDS011;64606;44.062;2.986;2023-04-03T01:57:53;0.70;;;0.60;;
75928;SDS011;64606;44.062;2.986;2023-04-03T02:00:20;0.90;;;0.68;;
75928;SDS011;64606;44.062;2.986;2023-04-03T02:02:46;1.05;;;0.65;;
75928;SDS011;64606;44.062;2.986;2023-04-03T02:05:12;3.28;;;0.70;;
75928;SDS011;64606;44.062;2.986;2023-04-03T02:07:38;1.08;;;0.70;;
75928;SDS011;64606;44.062;2.986;2023-04-03T02:10:04;1.63;;;0.75;;
75928;SDS011;64606;44.062;2.986;2023-04-03T02:12:31;2.30;;;0.73;;
75928;SDS011;64606;44.062;2.986;2023-04-03T02:14:57;0.80;;;0.60;;
75928;SDS011;64606;44.062;2.986;2023-04-03T02:17:23;0.73;;;0.60;;
75928;SDS011;64606;44.062;2.986;2023-04-03T02:19:49;0.70;;;0.68;;
75928;SDS011;64606;44.062;2.986;2023-04-03T02:22:15;0.60;;;0.60;;
75928;SDS011;64606;44.062;2.986;2023-04-03T02:24:42;0.70;;;0.60;;
75928;SDS011;64606;44.062;2.986;2023-04-03T02:27:08;1.15;;;0.70;;
75928;SDS011;64606;44.062;2.986;2023-04-03T02:29:34;1.05;;;0.70;;
75928;SDS011;64606;44.062;2.986;2023-04-03T02:32:00;0.68;;;0.65;;
75928;SDS011;64606;44.062;2.986;2023-04-03T02:34:26;1.20;;;0.77;;
75928;SDS011;64606;44.062;2.986;2023-04-03T02:36:52;0.73;;;0.60;;
75928;SDS011;64606;44.062;2.986;2023-04-03T02:39:18;0.77;;;0.50;;
75928;SDS011;64606;44.062;2.986;2023-04-03T02:41:45;1.23;;;0.80;;
75928;SDS011;64606;44.062;2.986;2023-04-03T02:44:11;1.30;;;0.80;;
75928;SDS011;64606;44.062;2.986;2023-04-03T02:46:38;1.70;;;0.80;;
75928;SDS011;64606;44.062;2.986;2023-04-03T02:49:04;2.05;;;0.70;;
75928;SDS011;64606;44.062;2.986;2023-04-03T02:51:30;0.75;;;0.70;;
75928;SDS011;64606;44.062;2.986;2023-04-03T02:53:57;0.70;;;0.70;;
75928;SDS011;64606;44.062;2.986;2023-04-03T02:56:23;0.93;;;0.80;;
75928;SDS011;64606;44.062;2.986;2023-04-03T02:58:49;2.13;;;0.80;;
75928;SDS011;64606;44.062;2.986;2023-04-03T03:01:15;1.38;;;0.70;;
75928;SDS011;64606;44.062;2.986;2023-04-03T03:03:42;1.63;;;0.70;;
75928;SDS011;64606;44.062;2.986;2023-04-03T03:06:09;0.73;;;0.70;;
75928;SDS011;64606;44.062;2.986;2023-04-03T03:08:35;1.10;;;0.80;;
75928;SDS011;64606;44.062;2.986;2023-04-03T03:11:02;0.65;;;0.60;;
75928;SDS011;64606;44.062;2.986;2023-04-03T03:13:28;0.82;;;0.70;;
75928;SDS011;64606;44.062;2.986;2023-04-03T03:15:54;0.50;;;0.50;;
75928;SDS011;64606;44.062;2.986;2023-04-03T03:18:20;0.68;;;0.68;;
75928;SDS011;64606;44.062;2.986;2023-04-03T03:20:50;2.03;;;0.70;;
75928;SDS011;64606;44.062;2.986;2023-04-03T03:23:16;0.60;;;0.60;;
75928;SDS011;64606;44.062;2.986;2023-04-03T03:25:42;1.27;;;0.80;;
75928;SDS011;64606;44.062;2.986;2023-04-03T03:28:08;1.02;;;0.65;;
75928;SDS011;64606;44.062;2.986;2023-04-03T03:30:34;1.10;;;0.70;;
75928;SDS011;64606;44.062;2.986;2023-04-03T03:33:00;1.75;;;0.60;;
75928;SDS011;64606;44.062;2.986;2023-04-03T03:35:27;1.00;;;0.70;;
75928;SDS011;64606;44.062;2.986;2023-04-03T03:37:53;1.25;;;0.80;;
75928;SDS011;64606;44.062;2.986;2023-04-03T03:40:19;1.00;;;0.68;;
75928;SDS011;64606;44.062;2.986;2023-04-03T03:42:45;0.77;;;0.60;;
75928;SDS011;64606;44.062;2.986;2023-04-03T03:45:11;0.60;;;0.55;;
75928;SDS011;64606;44.062;2.986;2023-04-03T03:47:37;0.90;;;0.63;;
75928;SDS011;64606;44.062;2.986;2023-04-03T03:50:05;0.70;;;0.60;;
75928;SDS011;64606;44.062;2.986;2023-04-03T03:52:31;1.77;;;0.47;;
75928;SDS011;64606;44.062;2.986;2023-04-03T03:54:57;0.85;;;0.50;;
75928;SDS011;64606;44.062;2.986;2023-04-03T03:57:23;0.88;;;0.60;;
75928;SDS011;64606;44.062;2.986;2023-04-03T03:59:51;0.77;;;0.63;;
75928;SDS011;64606;44.062;2.986;2023-04-03T04:02:18;0.93;;;0.55;;
75928;SDS011;64606;44.062;2.986;2023-04-03T04:04:44;1.05;;;0.47;;
75928;SDS011;64606;44.062;2.986;2023-04-03T04:07:11;1.25;;;0.70;;
75928;SDS011;64606;44.062;2.986;2023-04-03T04:09:37;0.70;;;0.50;;
75928;SDS011;64606;44.062;2.986;2023-04-03T04:12:03;0.68;;;0.50;;
75928;SDS011;64606;44.062;2.986;2023-04-03T04:14:29;2.45;;;0.52;;
75928;SDS011;64606;44.062;2.986;2023-04-03T04:16:55;0.52;;;0.50;;
75928;SDS011;64606;44.062;2.986;2023-04-03T04:19:21;0.73;;;0.40;;
75928;SDS011;64606;44.062;2.986;2023-04-03T04:21:47;0.98;;;0.60;;
75928;SDS011;64606;44.062;2.986;2023-04-03T04:24:14;0.88;;;0.40;;
75928;SDS011;64606;44.062;2.986;2023-04-03T04:26:40;0.50;;;0.40;;
75928;SDS011;64606;44.062;2.986;2023-04-03T04:29:06;1.02;;;0.63;;
75928;SDS011;64606;44.062;2.986;2023-04-03T04:31:32;2.15;;;0.63;;
75928;SDS011;64606;44.062;2.986;2023-04-03T04:33:58;0.47;;;0.35;;
75928;SDS011;64606;44.062;2.986;2023-04-03T04:36:25;0.40;;;0.40;;
75928;SDS011;64606;44.062;2.986;2023-04-03T04:38:51;0.88;;;0.50;;
75928;SDS011;64606;44.062;2.986;2023-04-03T04:41:20;1.27;;;0.50;;
75928;SDS011;64606;44.062;2.986;2023-04-03T04:43:48;0.95;;;0.50;;
75928;SDS011;64606;44.062;2.986;2023-04-03T04:46:14;0.65;;;0.50;;
75928;SDS011;64606;44.062;2.986;2023-04-03T04:48:40;0.30;;;0.30;;
75928;SDS011;64606;44.062;2.986;2023-04-03T04:51:07;0.85;;;0.80;;
75928;SDS011;64606;44.062;2.986;2023-04-03T04:53:33;3.72;;;1.23;;
75928;SDS011;64606;44.062;2.986;2023-04-03T04:55:59;0.60;;;0.60;;
75928;SDS011;64606;44.062;2.986;2023-04-03T04:58:26;0.82;;;0.50;;
75928;SDS011;64606;44.062;2.986;2023-04-03T05:00:58;0.80;;;0.50;;
75928;SDS011;64606;44.062;2.986;2023-04-03T05:03:25;0.52;;;0.52;;
75928;SDS011;64606;44.062;2.986;2023-04-03T05:05:51;2.63;;;0.63;;
75928;SDS011;64606;44.062;2.986;2023-04-03T05:08:17;2.22;;;0.75;;
75928;SDS011;64606;44.062;2.986;2023-04-03T05:10:44;1.88;;;0.50;;
75928;SDS011;64606;44.062;2.986;2023-04-03T05:13:10;1.38;;;0.40;;
75928;SDS011;64606;44.062;2.986;2023-04-03T05:15:37;0.98;;;0.50;;
75928;SDS011;64606;44.062;2.986;2023-04-03T05:18:03;0.95;;;0.43;;
75928;SDS011;64606;44.062;2.986;2023-04-03T05:20:30;1.00;;;0.70;;
75928;SDS011;64606;44.062;2.986;2023-04-03T05:22:56;2.25;;;0.70;;
75928;SDS011;64606;44.062;2.986;2023-04-03T05:25:22;1.60;;;0.70;;
75928;SDS011;64606;44.062;2.986;2023-04-03T05:27:49;0.93;;;0.52;;
75928;SDS011;64606;44.062;2.986;2023-04-03T05:30:16;1.10;;;0.70;;
75928;SDS011;64606;44.062;2.986;2023-04-03T05:32:42;1.00;;;0.50;;
75928;SDS011;64606;44.062;2.986;2023-04-03T05:35:08;1.30;;;1.00;;
75928;SDS011;64606;44.062;2.986;2023-04-03T05:37:35;4.00;;;2.95;;
75928;SDS011;64606;44.062;2.986;2023-04-03T05:40:03;2.88;;;2.00;;
75928;SDS011;64606;44.062;2.986;2023-04-03T05:42:29;1.58;;;0.77;;
75928;SDS011;64606;44.062;2.986;2023-04-03T05:44:55;2.80;;;0.70;;
75928;SDS011;64606;44.062;2.986;2023-04-03T05:47:21;0.85;;;0.70;;
75928;SDS011;64606;44.062;2.986;2023-04-03T05:49:47;1.38;;;0.80;;
75928;SDS011;64606;44.062;2.986;2023-04-03T05:54:46;1.85;;;1.00;;
75928;SDS011;64606;44.062;2.986;2023-04-03T05:57:13;1.75;;;1.20;;
75928;SDS011;64606;44.062;2.986;2023-04-03T05:59:41;1.77;;;1.13;;
75928;SDS011;64606;44.062;2.986;2023-04-03T06:02:09;1.23;;;0.82;;
75928;SDS011;64606;44.062;2.986;2023-04-03T06:04:36;2.70;;;1.10;;
75928;SDS011;64606;44.062;2.986;2023-04-03T06:07:02;1.85;;;0.93;;
75928;SDS011;64606;44.062;2.986;2023-04-03T06:09:28;1.48;;;0.73;;
75928;SDS011;64606;44.062;2.986;2023-04-03T06:11:54;3.03;;;1.17;;
75928;SDS011;64606;44.062;2.986;2023-04-03T06:14:23;2.22;;;1.30;;
75928;SDS011;64606;44.062;2.986;2023-04-03T06:16:49;2.25;;;1.50;;
75928;SDS011;64606;44.062;2.986;2023-04-03T06:19:16;3.38;;;1.50;;
75928;SDS011;64606;44.062;2.986;2023-04-03T06:21:42;3.45;;;1.60;;
75928;SDS011;64606;44.062;2.986;2023-04-03T06:24:08;2.95;;;1.20;;
75928;SDS011;64606;44.062;2.986;2023-04-03T06:26:35;5.95;;;2.22;;
75928;SDS011;64606;44.062;2.986;2023-04-03T06:29:01;4.15;;;1.10;;
75928;SDS011;64606;44.062;2.986;2023-04-03T06:31:27;5.32;;;1.38;;
75928;SDS011;64606;44.062;2.986;2023-04-03T06:33:53;2.72;;;1.20;;
75928;SDS011;64606;44.062;2.986;2023-04-03T06:36:20;5.68;;;1.20;;
75928;SDS011;64606;44.062;2.986;2023-04-03T06:38:47;3.25;;;0.90;;
75928;SDS011;64606;44.062;2.986;2023-04-03T06:41:13;1.75;;;0.70;;
75928;SDS011;64606;44.062;2.986;2023-04-03T06:43:41;2.65;;;0.93;;
75928;SDS011;64606;44.062;2.986;2023-04-03T06:46:12;1.13;;;0.77;;
75928;SDS011;64606;44.062;2.986;2023-04-03T06:48:38;1.20;;;0.75;;
75928;SDS011;64606;44.062;2.986;2023-04-03T06:51:04;1.20;;;0.90;;
75928;SDS011;64606;44.062;2.986;2023-04-03T06:53:30;0.90;;;0.70;;
75928;SDS011;64606;44.062;2.986;2023-04-03T06:55:56;1.20;;;0.82;;
75928;SDS011;64606;44.062;2.986;2023-04-03T06:58:23;1.70;;;1.17;;
75928;SDS011;64606;44.062;2.986;2023-04-03T07:00:49;2.00;;;1.13;;
75928;SDS011;64606;44.062;2.986;2023-04-03T07:03:15;0.85;;;0.70;;
75928;SDS011;64606;44.062;2.986;2023-04-03T07:05:41;1.50;;;0.82;;
75928;SDS011;64606;44.062;2.986;2023-04-03T07:08:09;1.13;;;0.77;;
75928;SDS011;64606;44.062;2.986;2023-04-03T07:10:37;1.27;;;0.80;;
75928;SDS011;64606;44.062;2.986;2023-04-03T07:13:03;3.10;;;1.10;;
75928;SDS011;64606;44.062;2.986;2023-04-03T07:15:29;0.80;;;0.50;;
75928;SDS011;64606;44.062;2.986;2023-04-03T07:20:58;1.25;;;0.80;;
75928;SDS011;64606;44.062;2.986;2023-04-03T07:23:33;2.03;;;1.00;;
75928;SDS011;64606;44.062;2.986;2023-04-03T07:25:59;1.45;;;0.90;;
75928;SDS011;64606;44.062;2.986;2023-04-03T07:31:29;0.75;;;0.63;;
75928;SDS011;64606;44.062;2.986;2023-04-03T07:33:56;0.98;;;0.75;;
75928;SDS011;64606;44.062;2.986;2023-04-03T07:36:22;0.60;;;0.60;;
75928;SDS011;64606;44.062;2.986;2023-04-03T07:38:49;0.98;;;0.52;;
75928;SDS011;64606;44.062;2.986;2023-04-03T07:41:15;0.77;;;0.55;;
75928;SDS011;64606;44.062;2.986;2023-04-03T07:43:43;0.80;;;0.60;;
75928;SDS011;64606;44.062;2.986;2023-04-03T07:46:10;1.05;;;0.47;;
75928;SDS011;64606;44.062;2.986;2023-04-03T07:48:36;0.52;;;0.43;;
75928;SDS011;64606;44.062;2.986;2023-04-03T07:51:02;1.02;;;0.65;;
75928;SDS011;64606;44.062;2.986;2023-04-03T07:53:29;0.32;;;0.32;;
75928;SDS011;64606;44.062;2.986;2023-04-03T07:55:56;0.68;;;0.50;;
75928;SDS011;64606;44.062;2.986;2023-04-03T07:58:22;1.88;;;0.60;;
75928;SDS011;64606;44.062;2.986;2023-04-03T08:00:49;1.98;;;1.20;;
75928;SDS011;64606;44.062;2.986;2023-04-03T08:03:15;0.98;;;0.60;;
75928;SDS011;64606;44.062;2.986;2023-04-03T08:05:43;0.90;;;0.55;;
75928;SDS011;64606;44.062;2.986;2023-04-03T08:08:10;0.57;;;0.30;;
75928;SDS011;64606;44.062;2.986;2023-04-03T08:10:37;0.55;;;0.50;;
75928;SDS011;64606;44.062;2.986;2023-04-03T08:13:03;0.47;;;0.40;;
75928;SDS011;64606;44.062;2.986;2023-04-03T08:15:29;0.40;;;0.40;;
75928;SDS011;64606;44.062;2.986;2023-04-03T08:17:56;0.52;;;0.50;;
75928;SDS011;64606;44.062;2.986;2023-04-03T08:20:23;0.50;;;0.47;;
75928;SDS011;64606;44.062;2.986;2023-04-03T08:22:49;0.55;;;0.50;;
75928;SDS011;64606;44.062;2.986;2023-04-03T08:25:16;1.13;;;0.50;;
75928;SDS011;64606;44.062;2.986;2023-04-03T08:27:42;0.50;;;0.50;;
75928;SDS011;64606;44.062;2.986;2023-04-03T08:30:09;1.05;;;0.60;;
75928;SDS011;64606;44.062;2.986;2023-04-03T08:32:35;0.60;;;0.47;;
75928;SDS011;64606;44.062;2.986;2023-04-03T08:35:04;1.30;;;0.80;;
75928;SDS011;64606;44.062;2.986;2023-04-03T08:37:31;1.00;;;0.57;;
75928;SDS011;64606;44.062;2.986;2023-04-03T08:39:57;1.58;;;0.73;;
75928;SDS011;64606;44.062;2.986;2023-04-03T08:45:13;1.33;;;0.60;;
75928;SDS011;64606;44.062;2.986;2023-04-03T08:47:40;0.60;;;0.50;;
75928;SDS011;64606;44.062;2.986;2023-04-03T08:50:51;1.95;;;0.68;;
75928;SDS011;64606;44.062;2.986;2023-04-03T08:52:58;0.70;;;0.52;;
75928;SDS011;64606;44.062;2.986;2023-04-03T08:57:53;0.82;;;0.40;;
75928;SDS011;64606;44.062;2.986;2023-04-03T09:00:22;2.03;;;0.50;;
75928;SDS011;64606;44.062;2.986;2023-04-03T09:02:49;0.90;;;0.40;;
75928;SDS011;64606;44.062;2.986;2023-04-03T09:05:20;1.52;;;0.50;;
75928;SDS011;64606;44.062;2.986;2023-04-03T09:08:06;1.63;;;0.40;;
75928;SDS011;64606;44.062;2.986;2023-04-03T09:10:33;0.50;;;0.45;;
75928;SDS011;64606;44.062;2.986;2023-04-03T09:15:30;0.40;;;0.30;;
75928;SDS011;64606;44.062;2.986;2023-04-03T09:18:00;0.43;;;0.43;;
75928;SDS011;64606;44.062;2.986;2023-04-03T09:22:54;1.33;;;0.50;;
75928;SDS011;64606;44.062;2.986;2023-04-03T09:25:25;1.02;;;0.30;;
75928;SDS011;64606;44.062;2.986;2023-04-03T09:27:53;0.93;;;0.40;;
75928;SDS011;64606;44.062;2.986;2023-04-03T09:30:22;0.65;;;0.60;;
75928;SDS011;64606;44.062;2.986;2023-04-03T09:32:55;0.65;;;0.50;;
75928;SDS011;64606;44.062;2.986;2023-04-03T09:37:49;1.13;;;0.50;;
75928;SDS011;64606;44.062;2.986;2023-04-03T09:45:28;1.23;;;0.40;;
75928;SDS011;64606;44.062;2.986;2023-04-03T09:48:12;1.42;;;0.40;;
75928;SDS011;64606;44.062;2.986;2023-04-03T09:53:07;0.30;;;0.30;;
75928;SDS011;64606;44.062;2.986;2023-04-03T09:55:41;1.02;;;0.30;;
75928;SDS011;64606;44.062;2.986;2023-04-03T09:58:22;0.45;;;0.40;;
75928;SDS011;64606;44.062;2.986;2023-04-03T10:00:56;3.03;;;0.40;;
75928;SDS011;64606;44.062;2.986;2023-04-03T10:03:32;1.20;;;0.57;;
75928;SDS011;64606;44.062;2.986;2023-04-03T10:06:00;1.70;;;0.70;;
75928;SDS011;64606;44.062;2.986;2023-04-03T10:08:28;2.08;;;0.40;;
75928;SDS011;64606;44.062;2.986;2023-04-03T10:16:07;1.70;;;0.30;;
75928;SDS011;64606;44.062;2.986;2023-04-03T10:18:39;0.17;;;0.17;;
75928;SDS011;64606;44.062;2.986;2023-04-03T10:23:51;0.30;;;0.30;;
75928;SDS011;64606;44.062;2.986;2023-04-03T10:27:03;0.25;;;0.25;;
75928;SDS011;64606;44.062;2.986;2023-04-03T10:29:20;0.63;;;0.20;;
75928;SDS011;64606;44.062;2.986;2023-04-03T10:34:23;0.47;;;0.30;;
75928;SDS011;64606;44.062;2.986;2023-04-03T10:50:27;0.20;;;0.20;;
75928;SDS011;64606;44.062;2.986;2023-04-03T10:55:31;0.30;;;0.20;;
75928;SDS011;64606;44.062;2.986;2023-04-03T10:58:00;0.40;;;0.40;;
75928;SDS011;64606;44.062;2.986;2023-04-03T11:00:44;0.20;;;0.20;;
75928;SDS011;64606;44.062;2.986;2023-04-03T11:03:24;0.40;;;0.40;;
75928;SDS011;64606;44.062;2.986;2023-04-03T11:05:53;1.13;;;0.50;;
75928;SDS011;64606;44.062;2.986;2023-04-03T11:10:51;1.20;;;0.68;;
75928;SDS011;64606;44.062;2.986;2023-04-03T11:13:22;1.55;;;1.00;;
75928;SDS011;64606;44.062;2.986;2023-04-03T11:15:50;0.90;;;0.60;;
75928;SDS011;64606;44.062;2.986;2023-04-03T11:18:38;0.80;;;0.40;;
75928;SDS011;64606;44.062;2.986;2023-04-03T11:23:36;1.00;;;0.68;;
75928;SDS011;64606;44.062;2.986;2023-04-03T11:26:08;0.90;;;0.50;;
75928;SDS011;64606;44.062;2.986;2023-04-03T11:28:35;3.03;;;0.52;;
75928;SDS011;64606;44.062;2.986;2023-04-03T11:31:07;1.73;;;1.10;;
75928;SDS011;64606;44.062;2.986;2023-04-03T11:36:09;1.65;;;0.40;;
75928;SDS011;64606;44.062;2.986;2023-04-03T11:38:38;1.00;;;0.73;;
75928;SDS011;64606;44.062;2.986;2023-04-03T11:41:08;1.08;;;0.60;;
75928;SDS011;64606;44.062;2.986;2023-04-03T11:43:40;0.30;;;0.30;;
75928;SDS011;64606;44.062;2.986;2023-04-03T11:46:07;0.88;;;0.60;;
75928;SDS011;64606;44.062;2.986;2023-04-03T11:53:38;1.05;;;0.60;;
75928;SDS011;64606;44.062;2.986;2023-04-03T12:04:20;0.60;;;0.60;;
75928;SDS011;64606;44.062;2.986;2023-04-03T12:11:59;0.45;;;0.30;;
75928;SDS011;64606;44.062;2.986;2023-04-03T12:14:25;0.25;;;0.22;;
75928;SDS011;64606;44.062;2.986;2023-04-03T12:16:53;0.38;;;0.30;;
75928;SDS011;64606;44.062;2.986;2023-04-03T12:19:38;0.20;;;0.20;;
75928;SDS011;64606;44.062;2.986;2023-04-03T12:22:13;0.30;;;0.30;;
75928;SDS011;64606;44.062;2.986;2023-04-03T12:24:41;0.30;;;0.30;;
75928;SDS011;64606;44.062;2.986;2023-04-03T12:27:15;0.38;;;0.30;;
75928;SDS011;64606;44.062;2.986;2023-04-03T12:40:05;0.50;;;0.50;;
75928;SDS011;64606;44.062;2.986;2023-04-03T12:45:22;0.40;;;0.30;;
75928;SDS011;64606;44.062;2.986;2023-04-03T12:47:49;0.30;;;0.30;;
75928;SDS011;64606;44.062;2.986;2023-04-03T12:53:22;0.20;;;0.20;;
75928;SDS011;64606;44.062;2.986;2023-04-03T12:55:42;2.25;;;0.57;;
75928;SDS011;64606;44.062;2.986;2023-04-03T13:01:10;0.50;;;0.45;;
75928;SDS011;64606;44.062;2.986;2023-04-03T13:03:38;2.08;;;0.35;;
75928;SDS011;64606;44.062;2.986;2023-04-03T13:06:05;0.35;;;0.30;;
75928;SDS011;64606;44.062;2.986;2023-04-03T13:08:31;0.40;;;0.30;;
75928;SDS011;64606;44.062;2.986;2023-04-03T13:11:08;0.20;;;0.20;;
75928;SDS011;64606;44.062;2.986;2023-04-03T13:13:36;0.20;;;0.20;;
75928;SDS011;64606;44.062;2.986;2023-04-03T13:16:10;0.28;;;0.20;;
75928;SDS011;64606;44.062;2.986;2023-04-03T13:18:38;0.30;;;0.30;;
75928;SDS011;64606;44.062;2.986;2023-04-03T13:21:15;1.10;;;0.50;;
75928;SDS011;64606;44.062;2.986;2023-04-03T13:23:43;0.22;;;0.22;;
75928;SDS011;64606;44.062;2.986;2023-04-03T13:26:10;0.30;;;0.30;;
75928;SDS011;64606;44.062;2.986;2023-04-03T13:28:38;0.95;;;0.28;;
75928;SDS011;64606;44.062;2.986;2023-04-03T13:33:35;0.30;;;0.30;;
75928;SDS011;64606;44.062;2.986;2023-04-03T13:36:11;0.63;;;0.20;;
75928;SDS011;64606;44.062;2.986;2023-04-03T13:38:42;0.50;;;0.30;;
75928;SDS011;64606;44.062;2.986;2023-04-03T13:41:23;0.32;;;0.30;;
75928;SDS011;64606;44.062;2.986;2023-04-03T13:43:49;0.38;;;0.35;;
75928;SDS011;64606;44.062;2.986;2023-04-03T13:48:46;0.73;;;0.40;;
75928;SDS011;64606;44.062;2.986;2023-04-03T13:56:34;0.57;;;0.40;;
75928;SDS011;64606;44.062;2.986;2023-04-03T13:59:05;0.52;;;0.52;;
75928;SDS011;64606;44.062;2.986;2023-04-03T14:01:40;0.75;;;0.52;;
75928;SDS011;64606;44.062;2.986;2023-04-03T14:04:15;0.60;;;0.40;;
75928;SDS011;64606;44.062;2.986;2023-04-03T14:06:42;0.90;;;0.52;;
75928;SDS011;64606;44.062;2.986;2023-04-03T14:09:08;1.15;;;0.30;;
75928;SDS011;64606;44.062;2.986;2023-04-03T14:11:34;0.43;;;0.43;;
75928;SDS011;64606;44.062;2.986;2023-04-03T14:14:02;0.65;;;0.50;;
75928;SDS011;64606;44.062;2.986;2023-04-03T14:16:32;0.70;;;0.60;;
75928;SDS011;64606;44.062;2.986;2023-04-03T14:18:59;0.50;;;0.50;;
75928;SDS011;64606;44.062;2.986;2023-04-03T14:21:25;0.38;;;0.38;;
75928;SDS011;64606;44.062;2.986;2023-04-03T14:23:51;0.47;;;0.43;;
75928;SDS011;64606;44.062;2.986;2023-04-03T14:26:18;0.40;;;0.40;;
75928;SDS011;64606;44.062;2.986;2023-04-03T14:28:46;0.60;;;0.50;;
75928;SDS011;64606;44.062;2.986;2023-04-03T14:31:13;0.40;;;0.40;;
75928;SDS011;64606;44.062;2.986;2023-04-03T14:33:39;0.40;;;0.40;;
75928;SDS011;64606;44.062;2.986;2023-04-03T14:36:24;0.60;;;0.50;;
75928;SDS011;64606;44.062;2.986;2023-04-03T14:38:51;0.60;;;0.50;;
75928;SDS011;64606;44.062;2.986;2023-04-03T14:41:19;0.20;;;0.20;;
75928;SDS011;64606;44.062;2.986;2023-04-03T14:43:46;0.65;;;0.30;;
75928;SDS011;64606;44.062;2.986;2023-04-03T14:46:13;0.28;;;0.28;;
75928;SDS011;64606;44.062;2.986;2023-04-03T14:48:41;0.65;;;0.57;;
75928;SDS011;64606;44.062;2.986;2023-04-03T14:51:08;1.17;;;1.00;;
75928;SDS011;64606;44.062;2.986;2023-04-03T14:53:35;2.08;;;1.85;;
75928;SDS011;64606;44.062;2.986;2023-04-03T14:56:02;1.10;;;0.98;;
75928;SDS011;64606;44.062;2.986;2023-04-03T14:58:28;0.73;;;0.70;;
75928;SDS011;64606;44.062;2.986;2023-04-03T15:00:54;0.30;;;0.30;;
75928;SDS011;64606;44.062;2.986;2023-04-03T15:03:21;0.30;;;0.30;;
75928;SDS011;64606;44.062;2.986;2023-04-03T15:05:48;0.60;;;0.47;;
75928;SDS011;64606;44.062;2.986;2023-04-03T15:08:17;0.80;;;0.60;;
75928;SDS011;64606;44.062;2.986;2023-04-03T15:10:44;0.52;;;0.52;;
75928;SDS011;64606;44.062;2.986;2023-04-03T15:13:10;0.40;;;0.40;;
75928;SDS011;64606;44.062;2.986;2023-04-03T15:15:37;0.52;;;0.50;;
75928;SDS011;64606;44.062;2.986;2023-04-03T15:18:04;0.90;;;0.70;;
75928;SDS011;64606;44.062;2.986;2023-04-03T15:20:30;0.80;;;0.70;;
75928;SDS011;64606;44.062;2.986;2023-04-03T15:22:58;0.70;;;0.50;;
75928;SDS011;64606;44.062;2.986;2023-04-03T15:25:28;0.30;;;0.30;;
75928;SDS011;64606;44.062;2.986;2023-04-03T15:27:55;0.40;;;0.40;;
75928;SDS011;64606;44.062;2.986;2023-04-03T15:30:21;0.43;;;0.40;;
75928;SDS011;64606;44.062;2.986;2023-04-03T15:32:47;0.40;;;0.40;;
75928;SDS011;64606;44.062;2.986;2023-04-03T15:35:14;0.70;;;0.40;;
75928;SDS011;64606;44.062;2.986;2023-04-03T15:37:40;0.40;;;0.38;;
75928;SDS011;64606;44.062;2.986;2023-04-03T15:40:07;0.55;;;0.40;;
75928;SDS011;64606;44.062;2.986;2023-04-03T15:42:33;1.05;;;0.52;;
75928;SDS011;64606;44.062;2.986;2023-04-03T15:44:59;0.75;;;0.50;;
75928;SDS011;64606;44.062;2.986;2023-04-03T15:47:26;0.50;;;0.50;;
75928;SDS011;64606;44.062;2.986;2023-04-03T15:49:52;1.25;;;0.73;;
75928;SDS011;64606;44.062;2.986;2023-04-03T15:52:19;0.40;;;0.40;;
75928;SDS011;64606;44.062;2.986;2023-04-03T15:54:45;0.30;;;0.30;;
75928;SDS011;64606;44.062;2.986;2023-04-03T15:57:11;0.73;;;0.40;;
75928;SDS011;64606;44.062;2.986;2023-04-03T15:59:37;0.80;;;0.43;;
75928;SDS011;64606;44.062;2.986;2023-04-03T16:02:04;0.35;;;0.35;;
75928;SDS011;64606;44.062;2.986;2023-04-03T16:04:32;0.40;;;0.40;;
75928;SDS011;64606;44.062;2.986;2023-04-03T16:07:00;0.47;;;0.47;;
75928;SDS011;64606;44.062;2.986;2023-04-03T16:09:26;1.02;;;0.50;;
75928;SDS011;64606;44.062;2.986;2023-04-03T16:11:53;0.47;;;0.40;;
75928;SDS011;64606;44.062;2.986;2023-04-03T16:14:19;0.30;;;0.30;;
75928;SDS011;64606;44.062;2.986;2023-04-03T16:16:46;0.60;;;0.35;;
75928;SDS011;64606;44.062;2.986;2023-04-03T16:19:12;1.45;;;0.40;;
75928;SDS011;64606;44.062;2.986;2023-04-03T16:21:38;2.80;;;0.77;;
75928;SDS011;64606;44.062;2.986;2023-04-03T16:24:05;0.90;;;0.60;;
75928;SDS011;64606;44.062;2.986;2023-04-03T16:26:31;0.65;;;0.40;;
75928;SDS011;64606;44.062;2.986;2023-04-03T16:28:57;0.38;;;0.38;;
75928;SDS011;64606;44.062;2.986;2023-04-03T16:31:23;0.45;;;0.25;;
75928;SDS011;64606;44.062;2.986;2023-04-03T16:33:50;0.20;;;0.20;;
75928;SDS011;64606;44.062;2.986;2023-04-03T16:36:16;0.30;;;0.28;;
75928;SDS011;64606;44.062;2.986;2023-04-03T16:38:42;1.02;;;0.70;;
75928;SDS011;64606;44.062;2.986;2023-04-03T16:41:09;0.60;;;0.60;;
75928;SDS011;64606;44.062;2.986;2023-04-03T16:43:35;0.50;;;0.50;;
75928;SDS011;64606;44.062;2.986;2023-04-03T16:46:02;0.70;;;0.60;;
75928;SDS011;64606;44.062;2.986;2023-04-03T16:48:28;1.05;;;0.95;;